チャーチル の空港の天気 - METARとTAF

チャーチル空港 ( CYYQ / YYQ ) - カナダ マニトバ州Churchill
飛行場実況気象(Metar)
観測時間01/19 05:00 CST (01/19 11:00 UTC)
風向・風速北西 6m/s
視程10km以上
天気現象
なし
気温-36℃
湿度67%
気圧1032.9hPa
METARCYYQ 191100Z 31011KT 15SM SKC M36/M40 A3048 RMK SLP329
過去の天気等 Google飛行場航空写真 Wunderground天気予報

過去48時間のMETAR

飛行場予報(TAF)
発表時間: 1/18 23:38 CST (1/19 05:38 UTC)
予報対象時間: 19日0時 CST ~ 20日0時 CST
風向・風速北西 6m/s
視程10km以上
天気現象細氷
なし
19日15時 CST から
風向・風速西 8m/s 瞬間風速 13m/s
視程10km以上
天気現象細氷
全天の4割程度の雲 雲底高度 3050m
19日15時 CST ~ 19日24時 CST に一時的に
視程8850m
天気現象高い地吹雪
TAF CYYQ 190538Z 1906/2006 31012KT P6SM IC SKC
FM192100 27015G25KT P6SM IC SCT100
TEMPO 1921/2006 11/2SM BLSN RMK NXT FCST BY 191200Z